Main page
METAR-TAF:

METAR-TAF

Airports :

Norwich Airport

Norwich, England

latitude: 52-38N, longitude: 001-18E, elevation: 14 m

Current weather observation

The report was made 24 minutes ago, at 19:50 UTC
Wind 5 kt from the West/Southwest
Temperature 5°C
Humidity 87%
Pressure 1036 hPa
Visibility 10 km or more

METAR: EGSH 221950Z AUTO 24005KT 9999 OVC022/// 05/03 Q1036

Time: 20:14 (20:14 UTC)

Forecast

The report was made 3 hours and 15 minutes ago, at 16:59 UTC
Forecast valid from 22 at 18 UTC to 23 at 03 UTC
Wind 4 kt from the West/Southwest
Visibility 10 km or more
Scattered clouds at a height of 2000 ft

TAF: EGSH 221659Z 2218/2303 24004KT 9999 SCT020

Weather observations and forecasts of more than 4000 airports (METAR and TAF reports).

The available stations are represented by yellow and red dots on the map.

Hover mouse over dot to see the name of the station.

Then click to see weather observations and forecasts.

To change the map : click on the green buttons with a black cross to zoom in, on the green button with a dash to zoom out, or on the green arrows for adjacent maps.


METAR-TAF: